sensor_id;sensor_type;location;lat;lon;timestamp;temperature;humidity
35645;DHT22;21764;52.042;6.830;2023-03-31T00:02:02;9.80;99.90
35645;DHT22;21764;52.042;6.830;2023-03-31T00:07:06;9.90;99.90
35645;DHT22;21764;52.042;6.830;2023-03-31T00:12:07;9.80;99.90
35645;DHT22;21764;52.042;6.830;2023-03-31T00:17:09;9.70;99.90
35645;DHT22;21764;52.042;6.830;2023-03-31T00:22:10;9.70;99.90
35645;DHT22;21764;52.042;6.830;2023-03-31T00:27:10;9.80;99.90
35645;DHT22;21764;52.042;6.830;2023-03-31T00:32:11;10.00;99.90
35645;DHT22;21764;52.042;6.830;2023-03-31T00:37:13;10.00;99.90
35645;DHT22;21764;52.042;6.830;2023-03-31T00:42:15;10.00;99.90
35645;DHT22;21764;52.042;6.830;2023-03-31T00:47:17;10.00;99.90
35645;DHT22;21764;52.042;6.830;2023-03-31T00:52:31;10.10;99.90
35645;DHT22;21764;52.042;6.830;2023-03-31T00:57:37;10.20;99.90
35645;DHT22;21764;52.042;6.830;2023-03-31T01:02:38;10.20;99.90
35645;DHT22;21764;52.042;6.830;2023-03-31T01:07:43;10.10;99.90
35645;DHT22;21764;52.042;6.830;2023-03-31T01:12:49;10.10;99.90
35645;DHT22;21764;52.042;6.830;2023-03-31T01:17:52;10.10;99.90
35645;DHT22;21764;52.042;6.830;2023-03-31T01:34:35;10.30;99.90
35645;DHT22;21764;52.042;6.830;2023-03-31T01:40:08;10.50;99.90
35645;DHT22;21764;52.042;6.830;2023-03-31T01:55:19;10.30;99.90
35645;DHT22;21764;52.042;6.830;2023-03-31T02:00:30;10.30;99.90
35645;DHT22;21764;52.042;6.830;2023-03-31T02:05:37;10.30;99.90
35645;DHT22;21764;52.042;6.830;2023-03-31T02:10:41;10.30;99.90
35645;DHT22;21764;52.042;6.830;2023-03-31T02:15:46;10.30;99.90
35645;DHT22;21764;52.042;6.830;2023-03-31T02:20:52;10.30;99.90
35645;DHT22;21764;52.042;6.830;2023-03-31T02:26:23;10.40;99.90
35645;DHT22;21764;52.042;6.830;2023-03-31T02:36:25;10.40;99.90
35645;DHT22;21764;52.042;6.830;2023-03-31T02:41:26;10.40;99.90
35645;DHT22;21764;52.042;6.830;2023-03-31T02:46:27;10.40;99.90
35645;DHT22;21764;52.042;6.830;2023-03-31T03:07:39;10.30;99.90
35645;DHT22;21764;52.042;6.830;2023-03-31T03:17:55;10.30;99.90
35645;DHT22;21764;52.042;6.830;2023-03-31T03:22:56;10.30;99.90
35645;DHT22;21764;52.042;6.830;2023-03-31T03:27:56;10.30;99.90
35645;DHT22;21764;52.042;6.830;2023-03-31T03:32:57;10.30;99.90
35645;DHT22;21764;52.042;6.830;2023-03-31T03:37:58;10.20;99.90
35645;DHT22;21764;52.042;6.830;2023-03-31T03:42:59;10.20;99.90
35645;DHT22;21764;52.042;6.830;2023-03-31T03:47:59;10.30;99.90
35645;DHT22;21764;52.042;6.830;2023-03-31T03:53:00;10.40;99.90
35645;DHT22;21764;52.042;6.830;2023-03-31T03:58:01;10.40;99.90
35645;DHT22;21764;52.042;6.830;2023-03-31T04:03:01;10.40;99.90
35645;DHT22;21764;52.042;6.830;2023-03-31T04:08:02;10.40;99.90
35645;DHT22;21764;52.042;6.830;2023-03-31T04:13:03;10.30;99.90
35645;DHT22;21764;52.042;6.830;2023-03-31T04:18:04;10.30;99.90
35645;DHT22;21764;52.042;6.830;2023-03-31T04:23:05;10.30;99.90
35645;DHT22;21764;52.042;6.830;2023-03-31T04:28:08;10.30;99.90
35645;DHT22;21764;52.042;6.830;2023-03-31T04:33:09;10.30;99.90
35645;DHT22;21764;52.042;6.830;2023-03-31T04:38:10;10.30;99.90
35645;DHT22;21764;52.042;6.830;2023-03-31T04:43:11;10.20;99.90
35645;DHT22;21764;52.042;6.830;2023-03-31T04:48:11;10.20;99.90
35645;DHT22;21764;52.042;6.830;2023-03-31T04:53:12;10.20;99.90
35645;DHT22;21764;52.042;6.830;2023-03-31T04:58:13;10.30;99.90
35645;DHT22;21764;52.042;6.830;2023-03-31T05:03:13;10.30;99.90
35645;DHT22;21764;52.042;6.830;2023-03-31T05:08:14;10.30;99.90
35645;DHT22;21764;52.042;6.830;2023-03-31T05:13:14;10.30;99.90
35645;DHT22;21764;52.042;6.830;2023-03-31T05:18:16;10.20;99.90
35645;DHT22;21764;52.042;6.830;2023-03-31T05:23:17;10.20;99.90
35645;DHT22;21764;52.042;6.830;2023-03-31T05:28:17;10.20;99.90
35645;DHT22;21764;52.042;6.830;2023-03-31T05:33:18;10.10;99.90
35645;DHT22;21764;52.042;6.830;2023-03-31T05:38:18;10.00;99.90
35645;DHT22;21764;52.042;6.830;2023-03-31T05:43:21;9.90;99.90
35645;DHT22;21764;52.042;6.830;2023-03-31T05:48:22;9.90;99.90
35645;DHT22;21764;52.042;6.830;2023-03-31T05:53:23;10.10;99.90
35645;DHT22;21764;52.042;6.830;2023-03-31T05:58:24;10.30;99.90
35645;DHT22;21764;52.042;6.830;2023-03-31T06:03:25;10.30;99.90
35645;DHT22;21764;52.042;6.830;2023-03-31T06:08:26;10.10;99.90
35645;DHT22;21764;52.042;6.830;2023-03-31T06:13:27;10.10;99.90
35645;DHT22;21764;52.042;6.830;2023-03-31T06:18:29;10.20;99.90
35645;DHT22;21764;52.042;6.830;2023-03-31T06:23:31;10.20;99.90
35645;DHT22;21764;52.042;6.830;2023-03-31T06:28:32;10.30;99.90
35645;DHT22;21764;52.042;6.830;2023-03-31T06:33:33;10.30;99.90
35645;DHT22;21764;52.042;6.830;2023-03-31T06:38:35;10.40;99.90
35645;DHT22;21764;52.042;6.830;2023-03-31T06:43:37;10.40;99.90
35645;DHT22;21764;52.042;6.830;2023-03-31T06:48:39;10.40;99.90
35645;DHT22;21764;52.042;6.830;2023-03-31T06:53:40;10.50;99.90
35645;DHT22;21764;52.042;6.830;2023-03-31T06:58:42;10.80;99.90
35645;DHT22;21764;52.042;6.830;2023-03-31T07:03:43;10.90;99.90
35645;DHT22;21764;52.042;6.830;2023-03-31T07:08:44;11.00;99.90
35645;DHT22;21764;52.042;6.830;2023-03-31T07:13:44;11.10;99.90
35645;DHT22;21764;52.042;6.830;2023-03-31T07:18:45;11.20;99.90
35645;DHT22;21764;52.042;6.830;2023-03-31T07:23:46;11.30;99.90
35645;DHT22;21764;52.042;6.830;2023-03-31T07:28:46;11.30;99.90
35645;DHT22;21764;52.042;6.830;2023-03-31T07:33:47;11.30;99.90
35645;DHT22;21764;52.042;6.830;2023-03-31T07:38:48;11.20;99.90
35645;DHT22;21764;52.042;6.830;2023-03-31T07:43:49;11.10;99.90
35645;DHT22;21764;52.042;6.830;2023-03-31T07:48:51;11.00;99.90
35645;DHT22;21764;52.042;6.830;2023-03-31T07:53:52;10.90;99.90
35645;DHT22;21764;52.042;6.830;2023-03-31T07:58:53;10.90;99.90
35645;DHT22;21764;52.042;6.830;2023-03-31T08:03:54;10.90;99.90
35645;DHT22;21764;52.042;6.830;2023-03-31T08:08:55;10.90;99.90
35645;DHT22;21764;52.042;6.830;2023-03-31T08:13:56;10.90;99.90
35645;DHT22;21764;52.042;6.830;2023-03-31T08:18:57;10.80;99.90
35645;DHT22;21764;52.042;6.830;2023-03-31T08:23:58;10.80;99.90
35645;DHT22;21764;52.042;6.830;2023-03-31T08:28:58;11.00;99.90
35645;DHT22;21764;52.042;6.830;2023-03-31T08:33:59;11.20;99.90
35645;DHT22;21764;52.042;6.830;2023-03-31T08:39:00;11.20;99.90
35645;DHT22;21764;52.042;6.830;2023-03-31T08:44:06;11.20;99.90
35645;DHT22;21764;52.042;6.830;2023-03-31T08:49:15;11.20;99.90
35645;DHT22;21764;52.042;6.830;2023-03-31T08:54:31;10.90;99.90
35645;DHT22;21764;52.042;6.830;2023-03-31T08:59:33;10.90;99.90
35645;DHT22;21764;52.042;6.830;2023-03-31T09:04:57;10.80;99.90
35645;DHT22;21764;52.042;6.830;2023-03-31T09:15:28;11.20;99.90
35645;DHT22;21764;52.042;6.830;2023-03-31T09:20:35;11.10;99.90
35645;DHT22;21764;52.042;6.830;2023-03-31T09:25:38;11.10;99.90
35645;DHT22;21764;52.042;6.830;2023-03-31T09:30:41;11.00;99.90
35645;DHT22;21764;52.042;6.830;2023-03-31T09:35:42;11.20;99.90
35645;DHT22;21764;52.042;6.830;2023-03-31T09:40:43;11.40;99.90
35645;DHT22;21764;52.042;6.830;2023-03-31T09:45:44;11.80;99.90
35645;DHT22;21764;52.042;6.830;2023-03-31T09:50:50;12.70;99.90
35645;DHT22;21764;52.042;6.830;2023-03-31T09:55:54;13.20;99.90
35645;DHT22;21764;52.042;6.830;2023-03-31T10:01:05;13.90;99.90
35645;DHT22;21764;52.042;6.830;2023-03-31T10:06:10;14.20;99.90
35645;DHT22;21764;52.042;6.830;2023-03-31T10:11:14;14.50;99.90
35645;DHT22;21764;52.042;6.830;2023-03-31T10:16:32;14.50;99.90
35645;DHT22;21764;52.042;6.830;2023-03-31T10:21:35;14.70;99.90
35645;DHT22;21764;52.042;6.830;2023-03-31T10:26:39;14.60;99.90
35645;DHT22;21764;52.042;6.830;2023-03-31T10:31:40;15.50;99.90
35645;DHT22;21764;52.042;6.830;2023-03-31T10:36:46;17.70;99.90
35645;DHT22;21764;52.042;6.830;2023-03-31T10:41:51;20.10;99.90
35645;DHT22;21764;52.042;6.830;2023-03-31T10:46:54;20.30;99.90
35645;DHT22;21764;52.042;6.830;2023-03-31T10:52:02;18.90;99.90
35645;DHT22;21764;52.042;6.830;2023-03-31T10:57:04;18.40;99.90
35645;DHT22;21764;52.042;6.830;2023-03-31T11:18:42;18.90;99.90
35645;DHT22;21764;52.042;6.830;2023-03-31T11:45:22;17.30;99.90
35645;DHT22;21764;52.042;6.830;2023-03-31T11:50:26;17.00;99.90
35645;DHT22;21764;52.042;6.830;2023-03-31T11:55:30;16.80;99.90
35645;DHT22;21764;52.042;6.830;2023-03-31T12:00:37;16.70;99.90
35645;DHT22;21764;52.042;6.830;2023-03-31T12:05:44;16.40;99.90
35645;DHT22;21764;52.042;6.830;2023-03-31T12:16:34;15.60;99.90
35645;DHT22;21764;52.042;6.830;2023-03-31T12:21:38;16.00;99.90
35645;DHT22;21764;52.042;6.830;2023-03-31T12:32:10;16.30;99.90
35645;DHT22;21764;52.042;6.830;2023-03-31T12:43:06;15.70;99.90
35645;DHT22;21764;52.042;6.830;2023-03-31T12:58:54;15.60;99.90
35645;DHT22;21764;52.042;6.830;2023-03-31T13:04:21;15.70;99.90
35645;DHT22;21764;52.042;6.830;2023-03-31T13:14:37;16.40;99.90
35645;DHT22;21764;52.042;6.830;2023-03-31T13:19:39;16.90;99.90
35645;DHT22;21764;52.042;6.830;2023-03-31T13:24:41;16.60;99.90
35645;DHT22;21764;52.042;6.830;2023-03-31T13:29:42;16.10;99.90
35645;DHT22;21764;52.042;6.830;2023-03-31T14:01:49;15.60;99.90
35645;DHT22;21764;52.042;6.830;2023-03-31T14:07:05;16.10;99.90
35645;DHT22;21764;52.042;6.830;2023-03-31T14:12:34;16.30;99.90
35645;DHT22;21764;52.042;6.830;2023-03-31T14:17:37;15.70;99.90
35645;DHT22;21764;52.042;6.830;2023-03-31T14:28:35;15.60;99.90
35645;DHT22;21764;52.042;6.830;2023-03-31T14:38:54;15.30;99.90
35645;DHT22;21764;52.042;6.830;2023-03-31T14:44:01;15.10;99.90
35645;DHT22;21764;52.042;6.830;2023-03-31T14:49:23;14.60;99.90
35645;DHT22;21764;52.042;6.830;2023-03-31T14:54:24;14.90;99.90
35645;DHT22;21764;52.042;6.830;2023-03-31T14:59:28;15.10;99.90
35645;DHT22;21764;52.042;6.830;2023-03-31T15:04:35;14.60;99.90
35645;DHT22;21764;52.042;6.830;2023-03-31T15:09:37;14.20;99.90
35645;DHT22;21764;52.042;6.830;2023-03-31T15:14:44;14.10;99.90
35645;DHT22;21764;52.042;6.830;2023-03-31T15:19:50;13.90;99.90
35645;DHT22;21764;52.042;6.830;2023-03-31T15:24:53;13.90;99.90
35645;DHT22;21764;52.042;6.830;2023-03-31T15:29:54;13.60;99.90
35645;DHT22;21764;52.042;6.830;2023-03-31T15:34:57;13.30;99.90
35645;DHT22;21764;52.042;6.830;2023-03-31T15:40:00;13.50;99.90
35645;DHT22;21764;52.042;6.830;2023-03-31T15:50:21;13.60;99.90
35645;DHT22;21764;52.042;6.830;2023-03-31T16:00:42;13.50;99.90
35645;DHT22;21764;52.042;6.830;2023-03-31T16:06:01;13.50;99.90
35645;DHT22;21764;52.042;6.830;2023-03-31T16:11:16;13.60;99.90
35645;DHT22;21764;52.042;6.830;2023-03-31T16:16:20;13.40;99.90
35645;DHT22;21764;52.042;6.830;2023-03-31T16:21:25;13.10;99.90
35645;DHT22;21764;52.042;6.830;2023-03-31T16:26:31;12.80;99.90
35645;DHT22;21764;52.042;6.830;2023-03-31T16:31:39;12.50;99.90
35645;DHT22;21764;52.042;6.830;2023-03-31T16:36:42;12.50;99.90
35645;DHT22;21764;52.042;6.830;2023-03-31T16:41:43;12.50;99.90
35645;DHT22;21764;52.042;6.830;2023-03-31T16:46:43;12.60;99.90
35645;DHT22;21764;52.042;6.830;2023-03-31T16:51:44;12.40;99.90
35645;DHT22;21764;52.042;6.830;2023-03-31T16:56:44;12.40;99.90
35645;DHT22;21764;52.042;6.830;2023-03-31T17:01:47;12.40;99.90
35645;DHT22;21764;52.042;6.830;2023-03-31T17:06:47;12.30;99.90
35645;DHT22;21764;52.042;6.830;2023-03-31T17:11:48;12.20;99.90
35645;DHT22;21764;52.042;6.830;2023-03-31T17:16:49;12.30;99.90
35645;DHT22;21764;52.042;6.830;2023-03-31T17:21:50;12.20;99.90
35645;DHT22;21764;52.042;6.830;2023-03-31T17:26:50;12.20;99.90
35645;DHT22;21764;52.042;6.830;2023-03-31T17:31:51;12.10;99.90
35645;DHT22;21764;52.042;6.830;2023-03-31T17:36:53;11.90;99.90
35645;DHT22;21764;52.042;6.830;2023-03-31T17:41:54;11.80;99.90
35645;DHT22;21764;52.042;6.830;2023-03-31T17:46:56;11.70;99.90
35645;DHT22;21764;52.042;6.830;2023-03-31T17:51:57;11.60;99.90
35645;DHT22;21764;52.042;6.830;2023-03-31T17:56:58;11.50;99.90
35645;DHT22;21764;52.042;6.830;2023-03-31T18:01:59;11.40;99.90
35645;DHT22;21764;52.042;6.830;2023-03-31T18:07:00;11.40;99.90
35645;DHT22;21764;52.042;6.830;2023-03-31T18:12:01;11.30;99.90
35645;DHT22;21764;52.042;6.830;2023-03-31T18:17:02;11.30;99.90
35645;DHT22;21764;52.042;6.830;2023-03-31T18:22:03;11.20;99.90
35645;DHT22;21764;52.042;6.830;2023-03-31T18:27:04;11.10;99.90
35645;DHT22;21764;52.042;6.830;2023-03-31T18:32:05;11.10;99.90
35645;DHT22;21764;52.042;6.830;2023-03-31T18:37:06;11.00;99.90
35645;DHT22;21764;52.042;6.830;2023-03-31T18:42:07;11.10;99.90
35645;DHT22;21764;52.042;6.830;2023-03-31T18:47:08;11.10;99.90
35645;DHT22;21764;52.042;6.830;2023-03-31T18:52:09;11.00;99.90
35645;DHT22;21764;52.042;6.830;2023-03-31T18:57:09;10.90;99.90
35645;DHT22;21764;52.042;6.830;2023-03-31T19:02:14;10.80;99.90
35645;DHT22;21764;52.042;6.830;2023-03-31T19:07:17;10.80;99.90
35645;DHT22;21764;52.042;6.830;2023-03-31T19:12:17;10.70;99.90
35645;DHT22;21764;52.042;6.830;2023-03-31T19:17:18;10.60;99.90
35645;DHT22;21764;52.042;6.830;2023-03-31T19:22:19;10.70;99.90
35645;DHT22;21764;52.042;6.830;2023-03-31T19:27:20;10.80;99.90
35645;DHT22;21764;52.042;6.830;2023-03-31T19:32:21;10.80;99.90
35645;DHT22;21764;52.042;6.830;2023-03-31T19:37:21;10.80;99.90
35645;DHT22;21764;52.042;6.830;2023-03-31T19:42:22;10.80;99.90
35645;DHT22;21764;52.042;6.830;2023-03-31T19:47:23;10.80;99.90
35645;DHT22;21764;52.042;6.830;2023-03-31T19:52:23;10.80;99.90
35645;DHT22;21764;52.042;6.830;2023-03-31T19:57:24;10.80;99.90
35645;DHT22;21764;52.042;6.830;2023-03-31T20:02:25;10.80;99.90
35645;DHT22;21764;52.042;6.830;2023-03-31T20:07:25;10.70;99.90
35645;DHT22;21764;52.042;6.830;2023-03-31T20:12:26;10.70;99.90
35645;DHT22;21764;52.042;6.830;2023-03-31T20:17:27;10.70;99.90
35645;DHT22;21764;52.042;6.830;2023-03-31T20:22:28;10.80;99.90
35645;DHT22;21764;52.042;6.830;2023-03-31T20:27:28;10.70;99.90
35645;DHT22;21764;52.042;6.830;2023-03-31T20:32:29;10.60;99.90
35645;DHT22;21764;52.042;6.830;2023-03-31T20:37:30;10.60;99.90
35645;DHT22;21764;52.042;6.830;2023-03-31T20:42:30;10.60;99.90
35645;DHT22;21764;52.042;6.830;2023-03-31T20:47:31;10.60;99.90
35645;DHT22;21764;52.042;6.830;2023-03-31T20:52:34;10.60;99.90
35645;DHT22;21764;52.042;6.830;2023-03-31T20:57:34;10.60;99.90
35645;DHT22;21764;52.042;6.830;2023-03-31T21:02:35;10.60;99.90
35645;DHT22;21764;52.042;6.830;2023-03-31T21:07:37;10.60;99.90
35645;DHT22;21764;52.042;6.830;2023-03-31T21:12:38;10.50;99.90
35645;DHT22;21764;52.042;6.830;2023-03-31T21:17:40;10.50;99.90
35645;DHT22;21764;52.042;6.830;2023-03-31T21:22:41;10.50;99.90
35645;DHT22;21764;52.042;6.830;2023-03-31T21:27:41;10.50;99.90
35645;DHT22;21764;52.042;6.830;2023-03-31T21:32:42;10.50;99.90
35645;DHT22;21764;52.042;6.830;2023-03-31T21:37:43;10.40;99.90
35645;DHT22;21764;52.042;6.830;2023-03-31T21:42:43;10.50;99.90
35645;DHT22;21764;52.042;6.830;2023-03-31T21:47:44;10.50;99.90
35645;DHT22;21764;52.042;6.830;2023-03-31T21:52:44;10.50;99.90
35645;DHT22;21764;52.042;6.830;2023-03-31T21:57:45;10.50;99.90
35645;DHT22;21764;52.042;6.830;2023-03-31T22:02:46;10.40;99.90
35645;DHT22;21764;52.042;6.830;2023-03-31T22:07:47;10.40;99.90
35645;DHT22;21764;52.042;6.830;2023-03-31T22:12:47;10.40;99.90
35645;DHT22;21764;52.042;6.830;2023-03-31T22:17:48;10.40;99.90
35645;DHT22;21764;52.042;6.830;2023-03-31T22:22:48;10.40;99.90
35645;DHT22;21764;52.042;6.830;2023-03-31T22:27:49;10.40;99.90
35645;DHT22;21764;52.042;6.830;2023-03-31T22:32:50;10.40;99.90
35645;DHT22;21764;52.042;6.830;2023-03-31T22:37:51;10.30;99.90
35645;DHT22;21764;52.042;6.830;2023-03-31T22:42:52;10.20;99.90
35645;DHT22;21764;52.042;6.830;2023-03-31T22:47:54;10.30;99.90
35645;DHT22;21764;52.042;6.830;2023-03-31T22:52:56;10.20;99.90
35645;DHT22;21764;52.042;6.830;2023-03-31T22:57:56;10.30;99.90
35645;DHT22;21764;52.042;6.830;2023-03-31T23:02:57;10.20;99.90
35645;DHT22;21764;52.042;6.830;2023-03-31T23:07:58;10.10;99.90
35645;DHT22;21764;52.042;6.830;2023-03-31T23:12:59;10.10;99.90
35645;DHT22;21764;52.042;6.830;2023-03-31T23:17:59;10.00;99.90
35645;DHT22;21764;52.042;6.830;2023-03-31T23:23:00;10.00;99.90
35645;DHT22;21764;52.042;6.830;2023-03-31T23:28:01;9.90;99.90
35645;DHT22;21764;52.042;6.830;2023-03-31T23:33:02;10.00;99.90
35645;DHT22;21764;52.042;6.830;2023-03-31T23:38:03;10.00;99.90
35645;DHT22;21764;52.042;6.830;2023-03-31T23:43:04;10.10;99.90
35645;DHT22;21764;52.042;6.830;2023-03-31T23:48:05;10.00;99.90
35645;DHT22;21764;52.042;6.830;2023-03-31T23:53:06;10.00;99.90
35645;DHT22;21764;52.042;6.830;2023-03-31T23:58:06;10.10;99.90
